createdAt,value
2023-02-22T00:00:44.300Z,1.11
2023-02-22T00:02:03.548Z,1.10
2023-02-22T00:03:27.212Z,1.06
2023-02-22T00:04:29.968Z,1.07
2023-02-22T00:06:08.944Z,1.10
2023-02-22T00:07:11.855Z,1.05
2023-02-22T00:08:22.372Z,1.05
2023-02-22T00:09:25.875Z,1.08
2023-02-22T00:10:34.815Z,1.07
2023-02-22T00:11:53.015Z,1.13
2023-02-22T00:13:32.888Z,1.08
2023-02-22T00:14:50.725Z,1.03
2023-02-22T00:16:01.457Z,0.98
2023-02-22T00:17:04.642Z,0.96
2023-02-22T00:18:25.503Z,0.98
2023-02-22T00:19:32.422Z,0.96
2023-02-22T00:20:44.179Z,0.96
2023-02-22T00:24:27.702Z,0.96
2023-02-22T00:25:45.843Z,1.02
2023-02-22T00:26:57.318Z,1.01
2023-02-22T00:28:05.163Z,1.00
2023-02-22T00:29:31.224Z,0.97
2023-02-22T00:30:41.202Z,0.95
2023-02-22T00:31:53.195Z,0.91
2023-02-22T00:33:19.601Z,0.89
2023-02-22T00:34:27.776Z,0.92
2023-02-22T00:35:43.570Z,0.89
2023-02-22T00:37:44.611Z,0.85
2023-02-22T00:38:47.048Z,0.83
2023-02-22T00:39:58.001Z,0.82
2023-02-22T00:41:41.762Z,0.81
2023-02-22T00:42:49.935Z,0.81
2023-02-22T00:44:43.516Z,0.82
2023-02-22T00:45:43.770Z,0.80
2023-02-22T00:46:58.491Z,0.80
2023-02-22T00:48:17.145Z,0.82
2023-02-22T00:49:22.850Z,0.82
2023-02-22T00:50:32.431Z,0.84
2023-02-22T00:51:52.608Z,0.83
2023-02-22T00:53:18.715Z,0.81
2023-02-22T00:54:21.983Z,0.85
2023-02-22T00:55:32.839Z,0.87
2023-02-22T00:56:42.192Z,0.88
2023-02-22T00:57:50.473Z,0.88
2023-02-22T00:58:58.996Z,0.87
2023-02-22T01:00:15.371Z,0.87
2023-02-22T01:01:18.651Z,0.86
2023-02-22T01:02:30.848Z,0.85
2023-02-22T01:03:39.321Z,0.84
2023-02-22T01:04:52.573Z,0.83
2023-02-22T01:06:00.755Z,0.82
2023-02-22T01:07:14.270Z,0.81
2023-02-22T01:08:21.856Z,0.80
2023-02-22T01:09:35.935Z,0.81
2023-02-22T01:11:02.125Z,0.85
2023-02-22T01:12:11.021Z,0.84
2023-02-22T01:13:31.708Z,0.83
2023-02-22T01:14:40.049Z,0.82
2023-02-22T01:15:46.349Z,0.83
2023-02-22T01:16:55.612Z,0.84
2023-02-22T01:18:10.537Z,0.85
2023-02-22T01:19:21.216Z,0.85
2023-02-22T01:20:53.876Z,0.85
2023-02-22T01:22:20.388Z,0.86
2023-02-22T01:23:40.741Z,0.87
2023-02-22T01:24:53.691Z,0.86
2023-02-22T01:26:06.249Z,0.86
2023-02-22T01:27:19.607Z,0.85
2023-02-22T01:28:25.813Z,0.85
2023-02-22T01:29:34.225Z,0.84
2023-02-22T01:30:40.644Z,0.82
2023-02-22T01:31:50.793Z,0.83
2023-02-22T01:33:01.597Z,0.85
2023-02-22T01:34:08.014Z,0.88
2023-02-22T01:35:19.927Z,0.88
2023-02-22T01:36:49.832Z,0.86
2023-02-22T01:37:55.008Z,0.82
2023-02-22T01:39:13.541Z,0.78
2023-02-22T01:40:25.632Z,0.77
2023-02-22T01:41:32.613Z,0.74
2023-02-22T01:42:42.222Z,0.73
2023-02-22T01:43:52.487Z,0.71
2023-02-22T01:45:33.404Z,0.70
2023-02-22T01:46:48.910Z,0.68
2023-02-22T01:48:05.035Z,0.69
2023-02-22T01:49:12.265Z,0.68
2023-02-22T01:50:20.874Z,0.67
2023-02-22T01:51:35.109Z,0.69
2023-02-22T01:52:41.806Z,0.69
2023-02-22T01:55:27.393Z,0.71
2023-02-22T01:56:47.119Z,0.73
2023-02-22T01:57:52.378Z,0.74
2023-02-22T01:59:03.165Z,0.69
2023-02-22T02:00:28.551Z,0.69
2023-02-22T02:01:46.079Z,0.62
2023-02-22T02:02:53.167Z,0.64
2023-02-22T02:04:02.849Z,0.56
2023-02-22T02:05:09.568Z,0.51
2023-02-22T02:06:23.534Z,0.48
2023-02-22T02:07:28.828Z,0.42
2023-02-22T02:09:13.729Z,0.38
2023-02-22T02:10:18.360Z,0.32
2023-02-22T02:11:26.052Z,0.26
2023-02-22T02:12:38.658Z,0.19
2023-02-22T02:13:45.272Z,0.21
2023-02-22T02:14:49.768Z,0.20
2023-02-22T02:15:57.904Z,0.18
2023-02-22T02:17:17.185Z,0.17
2023-02-22T02:18:25.125Z,0.16
2023-02-22T02:19:43.742Z,0.16
2023-02-22T02:21:06.335Z,0.16
2023-02-22T02:22:25.975Z,0.15
2023-02-22T02:24:06.165Z,0.14
2023-02-22T02:25:46.815Z,0.13
2023-02-22T02:27:14.398Z,0.10
2023-02-22T02:28:50.550Z,0.08
2023-02-22T02:30:36.751Z,0.05
2023-02-22T02:32:05.482Z,0.05
2023-02-22T02:33:24.343Z,0.02
2023-02-22T02:34:35.164Z,0.03
2023-02-22T02:35:55.106Z,0.06
2023-02-22T02:37:08.041Z,0.05
2023-02-22T02:38:22.268Z,0.05
2023-02-22T02:39:29.515Z,0.05
2023-02-22T02:40:53.051Z,0.03
2023-02-22T02:42:02.633Z,0.02
2023-02-22T02:43:19.335Z,-0.02
2023-02-22T02:44:32.907Z,-0.01
2023-02-22T02:45:43.185Z,0.03
2023-02-22T02:46:59.387Z,0.08
2023-02-22T02:48:12.555Z,0.07
2023-02-22T02:49:25.162Z,0.06
2023-02-22T02:50:35.306Z,0.10
2023-02-22T02:51:43.811Z,0.09
2023-02-22T02:52:52.743Z,0.10
2023-02-22T02:53:58.524Z,0.10
2023-02-22T02:55:05.880Z,0.11
2023-02-22T02:56:10.984Z,0.09
2023-02-22T02:57:20.261Z,0.08
2023-02-22T02:58:27.293Z,0.06
2023-02-22T02:59:32.866Z,0.05
2023-02-22T03:00:42.887Z,0.02
2023-02-22T03:01:58.494Z,0.01
2023-02-22T03:03:18.201Z,0.00
2023-02-22T03:04:35.960Z,-0.01
2023-02-22T03:06:22.295Z,-0.03
2023-02-22T03:07:43.387Z,-0.03
2023-02-22T03:08:54.260Z,-0.02
2023-02-22T03:10:25.942Z,0.01
2023-02-22T03:11:38.010Z,0.02
2023-02-22T03:12:50.799Z,0.01
2023-02-22T03:14:04.709Z,0.00
2023-02-22T03:15:24.562Z,-0.02
2023-02-22T03:16:35.566Z,0.02
2023-02-22T03:17:56.817Z,0.03
2023-02-22T03:19:11.645Z,0.04
2023-02-22T03:20:34.576Z,0.10
2023-02-22T03:21:48.274Z,0.15
2023-02-22T03:23:02.570Z,0.16
2023-02-22T03:24:32.708Z,0.15
2023-02-22T03:25:47.761Z,0.17
2023-02-22T03:27:00.450Z,0.15
2023-02-22T03:28:09.023Z,0.10
2023-02-22T03:29:16.644Z,0.08
2023-02-22T03:30:24.625Z,0.08
2023-02-22T03:31:37.778Z,0.10
2023-02-22T03:32:46.138Z,0.10
2023-02-22T03:33:56.618Z,0.12
2023-02-22T03:35:08.567Z,0.15
2023-02-22T03:36:19.329Z,0.18
2023-02-22T03:37:31.437Z,0.21
2023-02-22T03:38:40.688Z,0.20
2023-02-22T03:39:45.296Z,0.20
2023-02-22T03:40:57.674Z,0.15
2023-02-22T03:42:08.137Z,0.14
2023-02-22T03:43:25.558Z,0.14
2023-02-22T03:45:58.229Z,0.19
2023-02-22T03:47:06.418Z,0.21
2023-02-22T03:48:26.770Z,0.20
2023-02-22T03:49:36.001Z,0.12
2023-02-22T03:50:44.223Z,0.11
2023-02-22T03:51:46.964Z,0.04
2023-02-22T03:52:55.568Z,0.00
2023-02-22T03:53:59.172Z,-0.03
2023-02-22T03:55:11.330Z,-0.09
2023-02-22T03:56:28.864Z,-0.11
2023-02-22T03:57:39.234Z,-0.15
2023-02-22T03:58:44.444Z,-0.18
2023-02-22T03:59:50.068Z,-0.20
2023-02-22T04:00:54.288Z,-0.21
2023-02-22T04:02:00.770Z,-0.23
2023-02-22T04:03:03.851Z,-0.23
2023-02-22T04:04:08.855Z,-0.26
2023-02-22T04:05:14.610Z,-0.26
2023-02-22T04:06:23.314Z,-0.23
2023-02-22T04:07:25.712Z,-0.23
2023-02-22T04:08:30.889Z,-0.21
2023-02-22T04:09:33.107Z,-0.18
2023-02-22T04:10:38.449Z,-0.19
2023-02-22T04:11:41.091Z,-0.18
2023-02-22T04:12:46.283Z,-0.17
2023-02-22T04:13:48.651Z,-0.17
2023-02-22T04:14:53.480Z,-0.17
2023-02-22T04:15:55.877Z,-0.16
2023-02-22T04:17:02.489Z,-0.15
2023-02-22T04:18:30.482Z,-0.13
2023-02-22T04:19:35.755Z,-0.11
2023-02-22T04:20:38.196Z,-0.11
2023-02-22T04:21:47.993Z,-0.08
2023-02-22T04:22:50.353Z,-0.10
2023-02-22T04:23:57.374Z,-0.10
2023-02-22T04:24:59.927Z,-0.12
2023-02-22T04:26:05.021Z,-0.15
2023-02-22T04:27:07.615Z,-0.16
2023-02-22T04:28:12.822Z,-0.17
2023-02-22T04:29:16.431Z,-0.19
2023-02-22T04:30:22.660Z,-0.20
2023-02-22T04:31:27.207Z,-0.23
2023-02-22T04:32:32.306Z,-0.20
2023-02-22T04:33:38.971Z,-0.25
2023-02-22T04:34:46.974Z,-0.28
2023-02-22T04:36:05.217Z,-0.28
2023-02-22T04:37:14.040Z,-0.29
2023-02-22T04:38:16.464Z,-0.31
2023-02-22T04:39:26.632Z,-0.33
2023-02-22T04:40:29.584Z,-0.35
2023-02-22T04:41:35.036Z,-0.37
2023-02-22T04:42:38.131Z,-0.39
2023-02-22T04:43:43.439Z,-0.40
2023-02-22T04:44:46.745Z,-0.42
2023-02-22T04:45:53.103Z,-0.42
2023-02-22T04:46:56.352Z,-0.41
2023-02-22T04:48:01.304Z,-0.42
2023-02-22T04:49:04.285Z,-0.45
2023-02-22T04:50:10.791Z,-0.45
2023-02-22T04:51:13.382Z,-0.44
2023-02-22T04:52:23.873Z,-0.43
2023-02-22T04:53:26.389Z,-0.46
2023-02-22T04:54:38.392Z,-0.50
2023-02-22T04:55:42.729Z,-0.49
2023-02-22T04:56:48.046Z,-0.52
2023-02-22T04:57:50.587Z,-0.55
2023-02-22T04:58:55.504Z,-0.56
2023-02-22T04:59:59.072Z,-0.54
2023-02-22T05:01:04.335Z,-0.56
2023-02-22T05:02:09.091Z,-0.56
2023-02-22T05:03:15.595Z,-0.54
2023-02-22T05:04:20.745Z,-0.55
2023-02-22T05:05:26.896Z,-0.55
2023-02-22T05:06:29.359Z,-0.52
2023-02-22T05:07:41.662Z,-0.48
2023-02-22T05:08:44.313Z,-0.49
2023-02-22T05:09:49.226Z,-0.46
2023-02-22T05:10:51.637Z,-0.48
2023-02-22T05:11:57.055Z,-0.46
2023-02-22T05:13:04.004Z,-0.48
2023-02-22T05:14:14.016Z,-0.44
2023-02-22T05:15:29.106Z,-0.43
2023-02-22T05:16:36.483Z,-0.40
2023-02-22T05:17:39.151Z,-0.38
2023-02-22T05:18:45.529Z,-0.36
2023-02-22T05:19:50.151Z,-0.37
2023-02-22T05:20:56.595Z,-0.36
2023-02-22T05:21:59.213Z,-0.36
2023-02-22T05:23:09.522Z,-0.34
2023-02-22T05:24:17.794Z,-0.34
2023-02-22T05:25:23.475Z,-0.35
2023-02-22T05:26:27.752Z,-0.32
2023-02-22T05:27:32.738Z,-0.32
2023-02-22T05:28:35.670Z,-0.27
2023-02-22T05:29:42.428Z,-0.28
2023-02-22T05:30:45.174Z,-0.29
2023-02-22T05:31:50.076Z,-0.28
2023-02-22T05:32:52.473Z,-0.27
2023-02-22T05:33:58.492Z,-0.29
2023-02-22T05:35:00.864Z,-0.28
2023-02-22T05:36:06.237Z,-0.28
2023-02-22T05:37:08.784Z,-0.25
2023-02-22T05:38:20.957Z,-0.26
2023-02-22T05:39:23.444Z,-0.27
2023-02-22T05:40:32.583Z,-0.27
2023-02-22T05:41:36.155Z,-0.28
2023-02-22T05:42:41.187Z,-0.30
2023-02-22T05:43:45.392Z,-0.29
2023-02-22T05:44:50.378Z,-0.30
2023-02-22T05:45:54.201Z,-0.30
2023-02-22T05:47:01.911Z,-0.30
2023-02-22T05:48:04.967Z,-0.32
2023-02-22T05:49:09.856Z,-0.30
2023-02-22T05:50:12.228Z,-0.28
2023-02-22T05:51:21.376Z,-0.27
2023-02-22T05:52:26.668Z,-0.25
2023-02-22T05:53:39.617Z,-0.26
2023-02-22T05:54:43.132Z,-0.23
2023-02-22T05:55:49.611Z,-0.25
2023-02-22T05:56:52.406Z,-0.23
2023-02-22T05:57:57.813Z,-0.25
2023-02-22T05:59:00.628Z,-0.25
2023-02-22T06:00:08.506Z,-0.24
2023-02-22T06:01:11.057Z,-0.21
2023-02-22T06:02:16.232Z,-0.24
2023-02-22T06:03:18.397Z,-0.24
2023-02-22T06:04:24.837Z,-0.24
2023-02-22T06:05:28.323Z,-0.23
2023-02-22T06:06:39.078Z,-0.20
2023-02-22T06:07:41.761Z,-0.21
2023-02-22T06:08:51.063Z,-0.21
2023-02-22T06:09:54.848Z,-0.20
2023-02-22T06:11:01.548Z,-0.21
2023-02-22T06:12:07.206Z,-0.22
2023-02-22T06:13:12.867Z,-0.21
2023-02-22T06:14:18.733Z,-0.22
2023-02-22T06:15:26.083Z,-0.20
2023-02-22T06:16:32.051Z,-0.21
2023-02-22T06:17:35.700Z,-0.17
2023-02-22T06:18:41.279Z,-0.16
2023-02-22T06:19:43.634Z,-0.17
2023-02-22T06:20:48.594Z,-0.14
2023-02-22T06:21:58.139Z,-0.13
2023-02-22T06:23:09.030Z,-0.13
2023-02-22T06:24:17.566Z,-0.11
2023-02-22T06:25:22.770Z,-0.11
2023-02-22T06:26:28.052Z,-0.10
2023-02-22T06:27:31.687Z,-0.10
2023-02-22T06:28:42.476Z,-0.10
2023-02-22T06:29:46.656Z,-0.09
2023-02-22T06:30:51.837Z,-0.10
2023-02-22T06:31:55.745Z,-0.06
2023-02-22T06:33:04.840Z,-0.05
2023-02-22T06:34:18.457Z,-0.04
2023-02-22T06:35:24.016Z,-0.02
2023-02-22T06:36:27.765Z,0.00
2023-02-22T06:37:32.847Z,-0.01
2023-02-22T06:38:39.265Z,0.00
2023-02-22T06:39:44.287Z,0.02
2023-02-22T06:40:49.510Z,0.04
2023-02-22T06:41:53.139Z,0.06
2023-02-22T06:43:00.070Z,0.06
2023-02-22T06:44:02.566Z,0.05
2023-02-22T06:45:09.233Z,0.06
2023-02-22T06:46:12.079Z,0.08
2023-02-22T06:47:17.052Z,0.08
2023-02-22T06:48:19.469Z,0.10
2023-02-22T06:49:24.864Z,0.13
2023-02-22T06:50:29.911Z,0.14
2023-02-22T06:51:40.179Z,0.17
2023-02-22T06:52:44.339Z,0.19
2023-02-22T06:53:52.538Z,0.21
2023-02-22T06:54:59.005Z,0.26
2023-02-22T06:56:05.740Z,0.29
2023-02-22T06:57:10.491Z,0.33
2023-02-22T06:58:16.404Z,0.39
2023-02-22T06:59:20.379Z,0.44
2023-02-22T07:00:27.838Z,0.49
2023-02-22T07:01:35.336Z,0.54
2023-02-22T07:02:39.002Z,0.61
2023-02-22T07:03:44.003Z,0.65
2023-02-22T07:04:48.954Z,0.69
2023-02-22T07:05:51.363Z,0.72
2023-02-22T07:07:02.283Z,0.77
2023-02-22T07:08:13.519Z,0.82
2023-02-22T07:09:21.425Z,0.85
2023-02-22T07:10:30.394Z,0.89
2023-02-22T07:11:37.777Z,0.93
2023-02-22T07:12:43.829Z,0.98
2023-02-22T07:13:49.613Z,1.00
2023-02-22T07:14:55.503Z,1.05
2023-02-22T07:16:00.452Z,1.09
2023-02-22T07:17:03.557Z,1.15
2023-02-22T07:18:08.819Z,1.22
2023-02-22T07:19:11.176Z,1.25
2023-02-22T07:20:16.923Z,1.28
2023-02-22T07:21:22.106Z,1.32
2023-02-22T07:22:24.591Z,1.38
2023-02-22T07:23:33.497Z,1.42
2023-02-22T07:24:38.512Z,1.47
2023-02-22T07:25:46.543Z,1.52
2023-02-22T07:26:48.768Z,1.56
2023-02-22T07:27:54.094Z,1.60
2023-02-22T07:28:57.282Z,1.65
2023-02-22T07:30:02.362Z,1.68
2023-02-22T07:31:08.212Z,1.74
2023-02-22T07:32:10.941Z,1.78
2023-02-22T07:33:20.858Z,1.85
2023-02-22T07:34:23.011Z,1.88
2023-02-22T07:35:30.940Z,1.95
2023-02-22T07:36:33.391Z,1.99
2023-02-22T07:37:38.602Z,2.06
2023-02-22T07:38:43.989Z,2.10
2023-02-22T07:39:46.707Z,2.15
2023-02-22T07:40:56.336Z,2.22
2023-02-22T07:41:59.523Z,2.28
2023-02-22T07:43:07.255Z,2.33
2023-02-22T07:44:13.527Z,2.40
2023-02-22T07:45:15.913Z,2.47
2023-02-22T07:46:23.041Z,2.54
2023-02-22T07:47:25.468Z,2.62
2023-02-22T07:48:47.492Z,2.72
2023-02-22T07:49:51.018Z,2.81
2023-02-22T07:50:56.511Z,2.86
2023-02-22T07:51:58.991Z,2.95
2023-02-22T07:53:06.603Z,3.03
2023-02-22T07:54:09.015Z,3.10
2023-02-22T07:55:14.288Z,3.19
2023-02-22T07:56:20.758Z,3.28
2023-02-22T07:57:26.029Z,3.39
2023-02-22T07:58:33.652Z,3.47
2023-02-22T07:59:35.939Z,3.56
2023-02-22T08:00:44.332Z,3.65
2023-02-22T08:01:52.898Z,3.77
2023-02-22T08:02:56.330Z,3.87
2023-02-22T08:04:01.299Z,3.97
2023-02-22T08:05:05.514Z,4.08
2023-02-22T08:06:13.461Z,4.20
2023-02-22T08:07:19.723Z,4.31
2023-02-22T08:08:26.940Z,4.43
2023-02-22T08:09:29.457Z,4.59
2023-02-22T08:10:35.386Z,4.71
2023-02-22T08:11:43.134Z,4.89
2023-02-22T08:12:45.640Z,5.09
2023-02-22T08:13:53.554Z,5.37
2023-02-22T08:14:55.738Z,5.74
2023-02-22T08:16:00.791Z,6.08
2023-02-22T08:17:03.225Z,6.40
2023-02-22T08:18:12.766Z,6.69
2023-02-22T08:19:14.923Z,7.01
2023-02-22T08:20:20.378Z,7.26
2023-02-22T08:21:25.408Z,7.55
2023-02-22T08:22:29.239Z,7.85
2023-02-22T08:23:35.393Z,8.16
2023-02-22T08:24:37.786Z,8.51
2023-02-22T08:25:44.929Z,8.81
2023-02-22T08:26:50.157Z,9.19
2023-02-22T08:27:58.832Z,9.61
2023-02-22T08:29:03.811Z,10.04
2023-02-22T08:30:07.902Z,10.49
2023-02-22T08:31:14.155Z,10.88
2023-02-22T08:32:16.994Z,11.28
2023-02-22T08:33:25.631Z,11.70
2023-02-22T08:34:28.382Z,12.09
2023-02-22T08:35:34.791Z,12.52
2023-02-22T08:36:44.780Z,12.95
2023-02-22T08:37:52.378Z,13.40
2023-02-22T08:38:57.273Z,13.88
2023-02-22T08:39:59.449Z,14.26
2023-02-22T08:41:04.851Z,14.59
2023-02-22T08:42:10.444Z,14.66
2023-02-22T08:43:17.384Z,14.91
2023-02-22T08:44:19.810Z,15.32
2023-02-22T08:45:26.989Z,15.24
2023-02-22T08:46:32.103Z,14.90
2023-02-22T08:47:35.041Z,14.77
2023-02-22T08:48:40.040Z,14.94
2023-02-22T08:49:42.542Z,15.13
2023-02-22T08:50:47.813Z,15.31
2023-02-22T08:51:50.523Z,14.82
2023-02-22T08:53:16.761Z,15.44
2023-02-22T08:54:23.092Z,15.41
2023-02-22T08:55:31.460Z,15.63
2023-02-22T08:57:02.715Z,15.72
2023-02-22T08:58:10.108Z,15.85
2023-02-22T08:59:13.397Z,15.70
2023-02-22T09:00:20.412Z,15.51
2023-02-22T09:01:32.878Z,15.00
2023-02-22T09:02:39.712Z,15.30
2023-02-22T09:03:43.030Z,15.39
2023-02-22T09:04:48.600Z,15.17
2023-02-22T09:05:53.685Z,15.05
2023-02-22T09:06:55.871Z,14.80
2023-02-22T09:08:01.068Z,14.20
2023-02-22T09:09:05.253Z,14.34
2023-02-22T09:10:11.038Z,14.66
2023-02-22T09:11:16.569Z,14.23
2023-02-22T09:12:18.963Z,14.30
2023-02-22T09:13:28.756Z,14.21
2023-02-22T09:14:33.518Z,13.90
2023-02-22T09:15:42.766Z,14.12
2023-02-22T09:16:54.530Z,15.11
2023-02-22T09:18:00.155Z,15.44
2023-02-22T09:19:02.459Z,15.75
2023-02-22T09:20:08.296Z,15.70
2023-02-22T09:21:15.401Z,15.49
2023-02-22T09:22:18.095Z,15.92
2023-02-22T09:23:27.959Z,16.12
2023-02-22T09:24:32.979Z,17.13
2023-02-22T09:25:35.981Z,17.34
2023-02-22T09:26:43.228Z,16.61
2023-02-22T09:27:52.128Z,17.44
2023-02-22T09:29:00.101Z,18.05
2023-02-22T09:30:02.570Z,18.36
2023-02-22T09:31:07.819Z,17.73
2023-02-22T09:32:18.303Z,16.77
2023-02-22T09:33:27.741Z,16.53
2023-02-22T09:34:35.523Z,16.40
2023-02-22T09:35:42.790Z,16.47
2023-02-22T09:36:49.312Z,16.38
2023-02-22T09:37:51.462Z,16.16
2023-02-22T09:38:58.744Z,16.90
2023-02-22T09:40:01.220Z,17.62
2023-02-22T09:41:15.702Z,16.74
2023-02-22T09:42:31.653Z,16.95
2023-02-22T09:43:42.117Z,16.90
2023-02-22T09:44:53.929Z,16.85
2023-02-22T09:46:13.353Z,18.36
2023-02-22T09:47:23.148Z,17.81
2023-02-22T09:48:31.107Z,17.11
2023-02-22T09:49:41.574Z,16.62
2023-02-22T09:50:50.011Z,15.89
2023-02-22T09:51:59.277Z,15.93
2023-02-22T09:53:11.673Z,16.74
2023-02-22T09:54:25.604Z,16.73
2023-02-22T09:55:37.657Z,16.80
2023-02-22T09:56:47.246Z,16.44
2023-02-22T09:57:55.661Z,16.85
2023-02-22T09:59:07.558Z,17.02
2023-02-22T10:00:30.929Z,16.47
2023-02-22T10:01:39.286Z,16.58
2023-02-22T10:02:54.941Z,16.51
2023-02-22T10:04:09.084Z,16.56
2023-02-22T10:05:22.054Z,17.51
2023-02-22T10:06:26.064Z,18.05
2023-02-22T10:07:38.352Z,17.83
2023-02-22T10:08:40.761Z,17.04
2023-02-22T10:09:47.218Z,16.99
2023-02-22T10:11:07.177Z,16.61
2023-02-22T10:12:24.666Z,16.26
2023-02-22T10:13:43.065Z,16.16
2023-02-22T10:15:05.775Z,16.53
2023-02-22T10:16:26.452Z,16.84
2023-02-22T10:17:44.487Z,15.81
2023-02-22T10:19:15.282Z,15.43
2023-02-22T10:20:47.756Z,15.50
2023-02-22T10:22:20.460Z,16.31
2023-02-22T10:23:33.330Z,15.16
2023-02-22T10:24:58.993Z,14.88
2023-02-22T10:26:19.750Z,15.29
2023-02-22T10:27:28.500Z,15.26
2023-02-22T10:28:42.064Z,14.71
2023-02-22T10:29:46.785Z,14.97
2023-02-22T10:30:58.420Z,14.80
2023-02-22T10:32:05.446Z,15.19
2023-02-22T10:33:16.776Z,15.47
2023-02-22T10:34:28.739Z,14.84
2023-02-22T10:36:12.018Z,14.80
2023-02-22T10:37:31.854Z,14.70
2023-02-22T10:38:39.933Z,15.25
2023-02-22T10:39:47.736Z,15.04
2023-02-22T10:40:57.818Z,15.66
2023-02-22T10:42:07.794Z,15.70
2023-02-22T10:43:14.208Z,15.69
2023-02-22T10:44:21.938Z,15.64
2023-02-22T10:45:32.864Z,15.61
2023-02-22T10:46:35.474Z,15.68
2023-02-22T10:47:43.723Z,16.31
2023-02-22T10:48:53.700Z,16.23
2023-02-22T10:50:01.903Z,16.24
2023-02-22T10:51:12.162Z,16.57
2023-02-22T10:52:20.816Z,15.98
2023-02-22T10:53:37.842Z,16.78
2023-02-22T10:54:45.809Z,16.94
2023-02-22T10:56:18.601Z,17.12
2023-02-22T10:57:23.458Z,16.37
2023-02-22T10:58:30.803Z,16.90
2023-02-22T10:59:38.088Z,17.18
2023-02-22T11:00:40.873Z,16.74
2023-02-22T11:01:57.967Z,17.81
2023-02-22T11:03:18.450Z,18.10
2023-02-22T11:04:22.569Z,17.51
2023-02-22T11:05:37.017Z,17.82
2023-02-22T11:06:45.105Z,18.44
2023-02-22T11:07:51.476Z,19.26
2023-02-22T11:09:10.636Z,18.04
2023-02-22T11:10:17.119Z,18.07
2023-02-22T11:11:26.017Z,18.76
2023-02-22T11:12:37.720Z,17.56
2023-02-22T11:13:43.088Z,17.27
2023-02-22T11:14:51.398Z,17.94
2023-02-22T11:15:58.671Z,18.67
2023-02-22T11:17:10.959Z,19.29
2023-02-22T11:18:28.071Z,19.18
2023-02-22T11:19:36.680Z,18.51
2023-02-22T11:20:41.713Z,18.64
2023-02-22T11:21:47.838Z,19.57
2023-02-22T11:22:56.000Z,18.98
2023-02-22T11:24:12.345Z,18.92
2023-02-22T11:25:26.112Z,17.99
2023-02-22T11:26:30.733Z,18.33
2023-02-22T11:27:41.133Z,17.96
2023-02-22T11:28:49.655Z,18.35
2023-02-22T11:29:57.061Z,17.37
2023-02-22T11:31:13.218Z,17.00
2023-02-22T11:32:21.739Z,17.66
2023-02-22T11:33:31.342Z,17.40
2023-02-22T11:34:37.988Z,17.47
2023-02-22T11:35:54.087Z,17.75
2023-02-22T11:36:56.858Z,16.51
2023-02-22T11:38:21.521Z,16.17
2023-02-22T11:39:34.936Z,15.81
2023-02-22T11:40:39.314Z,15.97
2023-02-22T11:41:49.234Z,15.71
2023-02-22T11:43:11.419Z,15.18
2023-02-22T11:44:25.988Z,15.37
2023-02-22T11:45:28.999Z,16.04
2023-02-22T11:46:38.273Z,16.49
2023-02-22T11:47:53.369Z,16.55
2023-02-22T11:49:09.354Z,16.07
2023-02-22T11:50:31.370Z,16.06
2023-02-22T11:51:46.623Z,16.09
2023-02-22T11:53:02.471Z,16.32
2023-02-22T11:54:29.312Z,15.96
2023-02-22T11:55:43.061Z,16.25
2023-02-22T11:56:51.755Z,16.15
2023-02-22T11:58:09.101Z,16.97
2023-02-22T11:59:24.743Z,17.32
2023-02-22T12:00:39.978Z,16.46
2023-02-22T12:01:56.903Z,17.07
2023-02-22T12:03:21.340Z,17.05
2023-02-22T12:05:16.270Z,16.93
2023-02-22T12:06:33.124Z,16.68
2023-02-22T12:07:56.871Z,17.28
2023-02-22T12:09:16.632Z,17.84
2023-02-22T12:10:32.387Z,17.42
2023-02-22T12:11:48.366Z,17.83
2023-02-22T12:13:10.330Z,16.64
2023-02-22T12:14:24.856Z,16.87
2023-02-22T12:15:34.877Z,16.60
2023-02-22T12:16:57.728Z,16.72
2023-02-22T12:18:14.215Z,16.63
2023-02-22T12:19:31.223Z,18.08
2023-02-22T12:20:40.877Z,18.63
2023-02-22T12:21:50.200Z,19.06
2023-02-22T12:23:13.173Z,19.72
2023-02-22T12:24:23.443Z,19.45
2023-02-22T12:25:29.681Z,19.63
2023-02-22T12:26:39.693Z,18.47
2023-02-22T12:27:47.707Z,17.18
2023-02-22T12:29:01.378Z,17.28
2023-02-22T12:30:16.519Z,18.28
2023-02-22T12:31:29.550Z,18.44
2023-02-22T12:32:38.315Z,18.80
2023-02-22T12:33:54.783Z,19.15
2023-02-22T12:35:05.734Z,18.33
2023-02-22T12:36:18.838Z,19.24
2023-02-22T12:37:27.786Z,19.60
2023-02-22T12:38:41.928Z,19.27
2023-02-22T12:40:08.036Z,19.89
2023-02-22T12:41:22.577Z,20.35
2023-02-22T12:42:36.496Z,20.57
2023-02-22T12:43:49.652Z,20.78
2023-02-22T12:44:56.170Z,19.30
2023-02-22T12:46:08.605Z,18.56
2023-02-22T12:47:33.919Z,19.20
2023-02-22T12:48:49.853Z,19.06
2023-02-22T12:50:01.377Z,18.38
2023-02-22T12:51:25.211Z,17.99
2023-02-22T12:52:47.635Z,18.14
2023-02-22T12:54:01.447Z,18.90
2023-02-22T12:55:13.665Z,19.04
2023-02-22T12:56:23.016Z,19.80
2023-02-22T12:57:38.131Z,20.41
2023-02-22T12:58:55.036Z,19.43
2023-02-22T13:00:06.923Z,18.80
2023-02-22T13:01:21.325Z,18.37
2023-02-22T13:02:34.073Z,18.92
2023-02-22T13:03:39.041Z,19.14
2023-02-22T13:04:44.356Z,19.31
2023-02-22T13:05:54.232Z,18.46
2023-02-22T13:07:19.153Z,18.00
2023-02-22T13:08:33.220Z,18.66
2023-02-22T13:10:12.038Z,19.11
2023-02-22T13:11:25.324Z,20.07
2023-02-22T13:12:44.245Z,20.72
2023-02-22T13:13:55.949Z,21.56
2023-02-22T13:15:11.056Z,22.30
2023-02-22T13:16:32.108Z,23.09
2023-02-22T13:17:45.049Z,21.76
2023-02-22T13:19:02.290Z,22.55
2023-02-22T13:20:16.362Z,22.94
2023-02-22T13:21:28.189Z,22.58
2023-02-22T13:22:38.442Z,22.53
2023-02-22T13:23:50.532Z,22.47
2023-02-22T13:25:02.059Z,22.47
2023-02-22T13:26:15.080Z,22.41
2023-02-22T13:27:21.767Z,22.17
2023-02-22T13:28:36.427Z,22.14
2023-02-22T13:29:43.876Z,21.80
2023-02-22T13:30:57.907Z,21.59
2023-02-22T13:32:15.947Z,21.29
2023-02-22T13:33:36.152Z,20.84
2023-02-22T13:34:53.533Z,19.51
2023-02-22T13:36:21.984Z,18.16
2023-02-22T13:37:56.447Z,18.44
2023-02-22T13:39:42.415Z,17.77
2023-02-22T13:41:09.913Z,18.24
2023-02-22T13:42:51.114Z,17.62
2023-02-22T13:44:26.960Z,18.15
2023-02-22T13:46:00.267Z,17.45
2023-02-22T13:47:33.522Z,17.62
2023-02-22T13:48:59.468Z,16.74
2023-02-22T13:50:42.683Z,17.45
2023-02-22T13:51:49.903Z,17.80
2023-02-22T13:52:59.520Z,17.53
2023-02-22T13:54:05.480Z,17.45
2023-02-22T13:55:18.325Z,17.96
2023-02-22T13:56:23.703Z,16.89
2023-02-22T13:57:32.181Z,17.17
2023-02-22T13:58:53.167Z,17.35
2023-02-22T14:00:24.604Z,17.78
2023-02-22T14:01:44.127Z,17.23
2023-02-22T14:03:07.006Z,17.41
2023-02-22T14:04:44.474Z,18.40
2023-02-22T14:05:52.159Z,18.85
2023-02-22T14:07:00.748Z,19.10
2023-02-22T14:08:42.101Z,20.08
2023-02-22T14:09:48.558Z,20.63
2023-02-22T14:10:57.444Z,19.55
2023-02-22T14:11:59.897Z,18.96
2023-02-22T14:13:08.592Z,19.54
2023-02-22T14:14:24.941Z,18.89
2023-02-22T14:15:30.911Z,19.94
2023-02-22T14:16:37.818Z,20.07
2023-02-22T14:17:43.783Z,19.96
2023-02-22T14:18:49.708Z,19.84
2023-02-22T14:20:15.015Z,20.43
2023-02-22T14:21:19.466Z,19.27
2023-02-22T14:22:30.713Z,19.22
2023-02-22T14:23:44.053Z,20.57
2023-02-22T14:24:48.640Z,19.57
2023-02-22T14:25:54.850Z,19.04
2023-02-22T14:27:03.734Z,19.04
2023-02-22T14:28:08.109Z,19.24
2023-02-22T14:29:23.266Z,19.37
2023-02-22T14:30:28.778Z,19.17
2023-02-22T14:31:37.980Z,18.80
2023-02-22T14:32:43.448Z,18.37
2023-02-22T14:34:05.614Z,18.44
2023-02-22T14:35:27.539Z,19.03
2023-02-22T14:36:42.507Z,17.82
2023-02-22T14:37:52.083Z,17.99
2023-02-22T14:39:03.465Z,18.06
2023-02-22T14:40:18.518Z,18.38
2023-02-22T14:41:26.714Z,18.23
2023-02-22T14:42:36.349Z,16.81
2023-02-22T14:43:39.650Z,15.47
2023-02-22T14:44:53.243Z,15.74
2023-02-22T14:45:57.382Z,15.83
2023-02-22T14:47:08.754Z,15.63
2023-02-22T14:48:25.314Z,15.80
2023-02-22T14:49:31.002Z,16.09
2023-02-22T14:50:45.720Z,15.95
2023-02-22T14:51:54.499Z,15.81
2023-02-22T14:53:04.609Z,15.04
2023-02-22T14:54:20.896Z,14.93
2023-02-22T14:55:29.101Z,14.83
2023-02-22T14:56:41.516Z,14.61
2023-02-22T14:57:59.385Z,14.14
2023-02-22T14:59:18.694Z,14.17
2023-02-22T15:00:31.607Z,14.27
2023-02-22T15:01:49.027Z,13.85
2023-02-22T15:02:59.458Z,13.89
2023-02-22T15:04:23.800Z,13.75
2023-02-22T15:05:30.391Z,13.41
2023-02-22T15:06:37.750Z,13.30
2023-02-22T15:07:40.116Z,13.01
2023-02-22T15:08:49.047Z,12.63
2023-02-22T15:10:07.482Z,12.71
2023-02-22T15:11:23.145Z,12.94
2023-02-22T15:12:30.120Z,12.72
2023-02-22T15:13:36.350Z,12.82
2023-02-22T15:14:40.576Z,12.91
2023-02-22T15:15:49.300Z,12.82
2023-02-22T15:16:55.629Z,12.83
2023-02-22T15:18:02.108Z,12.74
2023-02-22T15:19:09.916Z,12.74
2023-02-22T15:20:16.937Z,12.73
2023-02-22T15:21:24.153Z,12.82
2023-02-22T15:22:32.053Z,13.11
2023-02-22T15:23:53.048Z,13.25
2023-02-22T15:25:02.167Z,13.00
2023-02-22T15:26:07.892Z,12.99
2023-02-22T15:27:17.407Z,13.29
2023-02-22T15:28:22.368Z,13.38